KCHO/CHO METAR and TAF weather

Enter ICAO airport designator
Station Type Date Time Source
KCHO METAR 2020/01/18 03:53 UTC NOAA

KCHO 180353Z 00000KT 10SM CLR M01/M11 A3066 RMK AO2 SLP386 T10061106


Station Type Date Time Source
KCHO Decoded METAR 2020/01/18 03:53 UTC NOAA

CHARLOTTESVILLE-ALBEMARLE, VA, United States (KCHO) 38-08N 078-27W 192M
Jan 17, 2020 - 10:53 PM EST / 2020.01.18 0353 UTC
Wind: Calm:0
Visibility: 10 mile(s):0
Sky conditions: clear
Temperature: 30.9 F (-0.6 C)
Dew Point: 12.9 F (-10.6 C)
Relative Humidity: 46%
Pressure (altimeter): 30.66 in. Hg (1038 hPa)
ob: KCHO 180353Z 00000KT 10SM CLR M01/M11 A3066 RMK AO2 SLP386 T10061106
cycle: 4

Station Type Date Time Source
KCHO TAF 2020/01/17 18:36 UTC NOAA

TAF KCHO 171734Z 1718/1818 01007KT P6SM FEW250
FM172200 05004KT P6SM FEW250
FM180100 VRB03KT P6SM SCT200
FM180300 VRB03KT P6SM BKN200
FM180900 VRB03KT P6SM OVC100
FM181200 16005KT P6SM BKN110
FM181500 18009KT 4SM -FZRAPL OVC050

Example: see airport list